createdAt,value
2023-03-04T00:00:33.457Z,21.4
2023-03-04T00:01:35.994Z,21.2
2023-03-04T00:02:38.497Z,21.7
2023-03-04T00:03:40.759Z,21.4
2023-03-04T00:04:43.093Z,21.3
2023-03-04T00:05:45.110Z,21.5
2023-03-04T00:06:47.655Z,21.4
2023-03-04T00:07:49.888Z,21.4
2023-03-04T00:08:52.143Z,21.4
2023-03-04T00:09:54.684Z,21.3
2023-03-04T00:10:57.196Z,21.3
2023-03-04T00:11:59.710Z,21.5
2023-03-04T00:13:02.247Z,21.6
2023-03-04T00:14:04.757Z,21.3
2023-03-04T00:15:07.272Z,21.5
2023-03-04T00:16:09.845Z,21.5
2023-03-04T00:17:12.747Z,21.5
2023-03-04T00:18:15.251Z,21.7
2023-03-04T00:19:17.731Z,21.5
2023-03-04T00:20:20.304Z,21.6
2023-03-04T00:21:22.034Z,21.4
2023-03-04T00:22:24.293Z,21.6
2023-03-04T00:23:26.844Z,21.4
2023-03-04T00:24:29.406Z,21.7
2023-03-04T00:25:31.938Z,21.5
2023-03-04T00:26:34.695Z,21.7
2023-03-04T00:27:36.919Z,21.7
2023-03-04T00:28:39.499Z,21.6
2023-03-04T00:29:41.734Z,21.8
2023-03-04T00:30:43.731Z,21.7
2023-03-04T00:31:46.036Z,21.6
2023-03-04T00:32:48.855Z,21.7
2023-03-04T00:33:51.373Z,21.8
2023-03-04T00:34:53.612Z,21.5
2023-03-04T00:35:56.375Z,21.7
2023-03-04T00:36:59.172Z,21.7
2023-03-04T00:38:01.679Z,21.7
2023-03-04T00:39:03.911Z,21.9
2023-03-04T00:40:06.464Z,21.7
2023-03-04T00:41:08.733Z,21.4
2023-03-04T00:42:10.973Z,21.7
2023-03-04T00:43:12.917Z,21.7
2023-03-04T00:44:15.442Z,21.6
2023-03-04T00:45:17.686Z,21.9
2023-03-04T00:46:20.257Z,21.6
2023-03-04T00:47:22.886Z,21.8
2023-03-04T00:48:25.378Z,21.7
2023-03-04T00:49:27.606Z,21.7
2023-03-04T00:50:30.124Z,21.6
2023-03-04T00:51:32.130Z,21.8
2023-03-04T00:52:34.659Z,21.8
2023-03-04T00:53:37.153Z,21.7
2023-03-04T00:54:39.647Z,21.6
2023-03-04T00:55:42.193Z,21.6
2023-03-04T00:56:44.694Z,21.7
2023-03-04T00:57:46.928Z,21.8
2023-03-04T00:58:49.422Z,21.7
2023-03-04T00:59:51.662Z,21.5
2023-03-04T01:00:54.192Z,21.7
2023-03-04T01:01:56.689Z,21.6
2023-03-04T01:02:58.922Z,21.9
2023-03-04T01:04:01.428Z,21.6
2023-03-04T01:05:03.929Z,21.8
2023-03-04T01:06:06.120Z,21.6
2023-03-04T01:07:08.419Z,21.5
2023-03-04T01:08:10.631Z,21.7
2023-03-04T01:09:12.870Z,22
2023-03-04T01:10:15.068Z,21.8
2023-03-04T01:11:17.268Z,21.8
2023-03-04T01:12:19.786Z,21.8
2023-03-04T01:13:22.026Z,21.8
2023-03-04T01:14:24.536Z,21.6
2023-03-04T01:15:27.035Z,21.8
2023-03-04T01:16:29.559Z,21.9
2023-03-04T01:17:32.276Z,21.9
2023-03-04T01:18:34.812Z,21.8
2023-03-04T01:19:37.324Z,21.8
2023-03-04T01:20:39.576Z,21.8
2023-03-04T01:21:42.068Z,21.8
2023-03-04T01:22:44.624Z,22
2023-03-04T01:23:46.348Z,21.6
2023-03-04T01:24:48.839Z,21.8
2023-03-04T01:25:51.364Z,21.8
2023-03-04T01:26:53.879Z,21.6
2023-03-04T01:27:56.061Z,21.9
2023-03-04T01:28:58.710Z,21.8
2023-03-04T01:30:01.196Z,21.9
2023-03-04T01:31:03.797Z,21.7
2023-03-04T01:32:06.556Z,22
2023-03-04T01:33:09.276Z,21.8
2023-03-04T01:34:11.641Z,22
2023-03-04T01:35:13.875Z,22
2023-03-04T01:36:16.364Z,21.9
2023-03-04T01:37:18.864Z,21.9
2023-03-04T01:38:21.610Z,21.8
2023-03-04T01:39:23.852Z,21.7
2023-03-04T01:40:25.817Z,21.9
2023-03-04T01:41:28.015Z,21.8
2023-03-04T01:42:30.227Z,21.9
2023-03-04T01:43:32.759Z,21.7
2023-03-04T01:44:35.282Z,22
2023-03-04T01:45:40.051Z,22
2023-03-04T01:46:42.857Z,22.2
2023-03-04T01:47:45.339Z,22.1
2023-03-04T01:48:47.706Z,22
2023-03-04T01:49:49.923Z,22
2023-03-04T01:50:51.858Z,21.9
2023-03-04T01:51:54.355Z,22.1
2023-03-04T01:52:56.843Z,22.1
2023-03-04T01:53:59.417Z,21.8
2023-03-04T01:55:01.934Z,21.8
2023-03-04T01:56:04.433Z,21.8
2023-03-04T01:57:06.922Z,22.1
2023-03-04T01:58:09.423Z,21.8
2023-03-04T01:59:11.935Z,21.9
2023-03-04T02:00:14.459Z,22.1
2023-03-04T02:01:16.685Z,22
2023-03-04T02:02:19.080Z,21.9
2023-03-04T02:03:21.291Z,22.1
2023-03-04T02:04:23.319Z,22
2023-03-04T02:05:26.447Z,21.8
2023-03-04T02:06:29.300Z,21.9
2023-03-04T02:07:31.559Z,22
2023-03-04T02:08:34.044Z,21.7
2023-03-04T02:09:36.612Z,22
2023-03-04T02:10:38.891Z,21.8
2023-03-04T02:11:41.125Z,21.9
2023-03-04T02:12:43.375Z,22.1
2023-03-04T02:13:45.579Z,21.8
2023-03-04T02:14:47.849Z,22
2023-03-04T02:15:50.404Z,22.3
2023-03-04T02:16:53.153Z,21.9
2023-03-04T02:17:55.660Z,22.1
2023-03-04T02:18:57.625Z,21.9
2023-03-04T02:19:59.852Z,22
2023-03-04T02:21:02.128Z,22.2
2023-03-04T02:22:04.638Z,22
2023-03-04T02:23:07.161Z,22
2023-03-04T02:24:09.378Z,22
2023-03-04T02:25:11.936Z,22.1
2023-03-04T02:26:14.466Z,22
2023-03-04T02:27:16.700Z,22
2023-03-04T02:28:22.634Z,21.9
2023-03-04T02:29:25.164Z,22
2023-03-04T02:30:27.695Z,22.2
2023-03-04T02:31:30.278Z,22
2023-03-04T02:32:32.960Z,22.1
2023-03-04T02:33:35.554Z,22.1
2023-03-04T02:34:38.038Z,21.9
2023-03-04T02:35:40.563Z,21.9
2023-03-04T02:36:43.021Z,21.7
2023-03-04T02:37:45.509Z,21.9
2023-03-04T02:38:47.764Z,22.1
2023-03-04T02:39:50.738Z,21.9
2023-03-04T02:40:53.333Z,22.2
2023-03-04T02:41:55.625Z,22.2
2023-03-04T02:42:57.873Z,22.1
2023-03-04T02:44:00.425Z,22.1
2023-03-04T02:45:02.972Z,22.2
2023-03-04T02:46:05.510Z,21.9
2023-03-04T02:47:07.983Z,22.1
2023-03-04T02:48:10.234Z,22.1
2023-03-04T02:49:12.466Z,22.2
2023-03-04T02:50:15.004Z,22.1
2023-03-04T02:51:17.720Z,22.2
2023-03-04T02:52:20.251Z,22.2
2023-03-04T02:53:22.904Z,22.1
2023-03-04T02:54:24.850Z,22.2
2023-03-04T02:55:27.083Z,22.2
2023-03-04T02:56:29.657Z,22.1
2023-03-04T02:57:32.219Z,22
2023-03-04T02:58:34.187Z,22
2023-03-04T02:59:36.680Z,22.1
2023-03-04T03:00:39.119Z,22.2
2023-03-04T03:01:41.646Z,22.1
2023-03-04T03:02:43.908Z,21.9
2023-03-04T03:03:46.524Z,21.9
2023-03-04T03:04:49.022Z,22.3
2023-03-04T03:05:51.514Z,22.1
2023-03-04T03:06:53.761Z,22
2023-03-04T03:07:56.324Z,21.9
2023-03-04T03:08:58.810Z,22.2
2023-03-04T03:10:01.060Z,22.3
2023-03-04T03:11:03.287Z,22.1
2023-03-04T03:12:05.862Z,22.1
2023-03-04T03:13:08.389Z,22
2023-03-04T03:14:10.880Z,22.2
2023-03-04T03:15:13.151Z,22.2
2023-03-04T03:16:15.703Z,22.2
2023-03-04T03:17:18.432Z,22
2023-03-04T03:18:20.949Z,22
2023-03-04T03:19:23.180Z,22.1
2023-03-04T03:20:25.702Z,22
2023-03-04T03:21:28.197Z,22.1
2023-03-04T03:22:30.426Z,21.9
2023-03-04T03:23:32.934Z,22.1
2023-03-04T03:24:35.224Z,22.1
2023-03-04T03:25:37.726Z,21.9
2023-03-04T03:26:40.237Z,22
2023-03-04T03:27:42.932Z,22
2023-03-04T03:28:45.211Z,22.1
2023-03-04T03:29:47.463Z,21.9
2023-03-04T03:30:49.740Z,21.9
2023-03-04T03:31:51.989Z,22
2023-03-04T03:32:54.758Z,22.1
2023-03-04T03:33:56.965Z,21.8
2023-03-04T03:34:59.469Z,21.9
2023-03-04T03:36:01.528Z,22
2023-03-04T03:37:04.886Z,22
2023-03-04T03:38:07.107Z,22.1
2023-03-04T03:39:09.646Z,22.1
2023-03-04T03:40:11.876Z,22.2
2023-03-04T03:41:14.379Z,22.2
2023-03-04T03:42:16.905Z,22.2
2023-03-04T03:43:19.601Z,21.9
2023-03-04T03:44:22.155Z,22
2023-03-04T03:45:24.437Z,22
2023-03-04T03:46:26.898Z,21.9
2023-03-04T03:47:29.166Z,22
2023-03-04T03:48:31.418Z,22.1
2023-03-04T03:49:33.646Z,22.3
2023-03-04T03:50:36.252Z,21.8
2023-03-04T03:51:37.614Z,22
2023-03-04T03:52:40.096Z,22.1
2023-03-04T03:53:42.317Z,22.1
2023-03-04T03:54:44.652Z,22
2023-03-04T03:55:47.174Z,22
2023-03-04T03:56:49.116Z,22
2023-03-04T03:57:51.629Z,22.1
2023-03-04T03:58:53.919Z,22
2023-03-04T03:59:56.457Z,22
2023-03-04T04:00:58.992Z,22.1
2023-03-04T04:02:01.657Z,22.3
2023-03-04T04:03:04.959Z,22.2
2023-03-04T04:04:07.838Z,22
2023-03-04T04:05:10.026Z,22.1
2023-03-04T04:06:12.043Z,22.2
2023-03-04T04:07:14.556Z,22.2
2023-03-04T04:08:17.056Z,22.3
2023-03-04T04:09:19.362Z,22.1
2023-03-04T04:10:21.895Z,22
2023-03-04T04:11:24.120Z,22.1
2023-03-04T04:12:26.328Z,22.2
2023-03-04T04:13:28.813Z,22
2023-03-04T04:14:31.410Z,22
2023-03-04T04:15:33.939Z,22
2023-03-04T04:16:36.551Z,22.2
2023-03-04T04:17:39.406Z,21.8
2023-03-04T04:18:41.924Z,22
2023-03-04T04:19:44.419Z,21.9
2023-03-04T04:20:46.417Z,21.9
2023-03-04T04:21:48.850Z,21.9
2023-03-04T04:22:51.100Z,22
2023-03-04T04:23:53.310Z,22
2023-03-04T04:24:55.828Z,21.8
2023-03-04T04:25:57.921Z,21.7
2023-03-04T04:27:00.470Z,21.8
2023-03-04T04:28:02.980Z,21.8
2023-03-04T04:29:05.492Z,21.9
2023-03-04T04:30:07.927Z,21.9
2023-03-04T04:31:10.549Z,21.9
2023-03-04T04:32:13.407Z,21.9
2023-03-04T04:33:16.108Z,22
2023-03-04T04:34:18.342Z,21.8
2023-03-04T04:35:20.922Z,21.9
2023-03-04T04:36:23.416Z,21.8
2023-03-04T04:37:25.374Z,22
2023-03-04T04:38:27.878Z,22
2023-03-04T04:39:30.360Z,22.1
2023-03-04T04:40:32.838Z,22.1
2023-03-04T04:41:35.361Z,22
2023-03-04T04:42:37.856Z,21.9
2023-03-04T04:43:40.090Z,22
2023-03-04T04:44:42.594Z,22
2023-03-04T04:45:45.192Z,21.8
2023-03-04T04:46:47.980Z,21.7
2023-03-04T04:47:50.490Z,21.8
2023-03-04T04:48:52.730Z,21.7
2023-03-04T04:49:54.931Z,21.7
2023-03-04T04:50:57.465Z,21.8
2023-03-04T04:51:59.969Z,21.6
2023-03-04T04:53:02.217Z,21.9
2023-03-04T04:54:04.695Z,21.7
2023-03-04T04:55:07.182Z,21.9
2023-03-04T04:56:09.418Z,21.8
2023-03-04T04:57:11.977Z,22
2023-03-04T04:58:14.260Z,22
2023-03-04T04:59:16.769Z,21.8
2023-03-04T05:00:18.984Z,21.7
2023-03-04T05:01:21.372Z,21.8
2023-03-04T05:02:23.969Z,22
2023-03-04T05:03:26.496Z,21.7
2023-03-04T05:04:29.286Z,21.9
2023-03-04T05:05:31.506Z,21.8
2023-03-04T05:06:33.710Z,22
2023-03-04T05:07:36.247Z,21.7
2023-03-04T05:08:38.736Z,21.8
2023-03-04T05:09:41.269Z,21.7
2023-03-04T05:10:43.553Z,21.6
2023-03-04T05:11:46.047Z,21.6
2023-03-04T05:12:48.580Z,21.8
2023-03-04T05:13:51.092Z,21.6
2023-03-04T05:14:53.339Z,21.5
2023-03-04T05:15:55.969Z,21.6
2023-03-04T05:16:58.512Z,21.7
2023-03-04T05:18:00.875Z,21.8
2023-03-04T05:19:03.389Z,21.8
2023-03-04T05:20:05.892Z,21.7
2023-03-04T05:21:08.419Z,21.6
2023-03-04T05:22:10.969Z,21.7
2023-03-04T05:23:13.443Z,21.8
2023-03-04T05:24:15.674Z,21.6
2023-03-04T05:25:18.204Z,21.8
2023-03-04T05:26:20.134Z,21.7
2023-03-04T05:27:22.387Z,21.6
2023-03-04T05:28:24.653Z,21.7
2023-03-04T05:29:27.191Z,21.7
2023-03-04T05:30:29.750Z,21.6
2023-03-04T05:31:32.292Z,21.7
2023-03-04T05:32:34.876Z,21.7
2023-03-04T05:33:37.204Z,21.6
2023-03-04T05:34:39.470Z,21.6
2023-03-04T05:35:42.044Z,21.7
2023-03-04T05:36:44.799Z,21.7
2023-03-04T05:37:47.295Z,21.7
2023-03-04T05:38:49.530Z,21.7
2023-03-04T05:39:52.036Z,21.8
2023-03-04T05:40:54.526Z,21.6
2023-03-04T05:41:56.750Z,21.6
2023-03-04T05:42:58.996Z,21.7
2023-03-04T05:44:01.519Z,21.7
2023-03-04T05:45:04.028Z,21.6
2023-03-04T05:46:06.032Z,21.6
2023-03-04T05:47:08.776Z,21.6
2023-03-04T05:48:11.398Z,21.5
2023-03-04T05:49:13.643Z,21.7
2023-03-04T05:50:15.888Z,21.7
2023-03-04T05:51:18.085Z,21.6
2023-03-04T05:52:20.600Z,21.6
2023-03-04T05:53:22.849Z,21.7
2023-03-04T05:54:25.132Z,21.7
2023-03-04T05:55:27.143Z,21.8
2023-03-04T05:56:29.653Z,21.5
2023-03-04T05:57:32.510Z,21.7
2023-03-04T05:58:34.811Z,21.7
2023-03-04T05:59:37.349Z,21.6
2023-03-04T06:00:39.559Z,21.6
2023-03-04T06:01:42.053Z,21.8
2023-03-04T06:02:44.626Z,21.6
2023-03-04T06:03:47.533Z,21.7
2023-03-04T06:04:50.237Z,21.6
2023-03-04T06:05:52.780Z,21.6
2023-03-04T06:06:55.028Z,21.5
2023-03-04T06:07:57.545Z,21.6
2023-03-04T06:09:00.049Z,21.6
2023-03-04T06:10:02.423Z,21.6
2023-03-04T06:11:04.934Z,21.6
2023-03-04T06:12:06.942Z,21.4
2023-03-04T06:13:09.479Z,21.6
2023-03-04T06:14:12.015Z,21.6
2023-03-04T06:15:14.292Z,21.6
2023-03-04T06:16:16.632Z,21.6
2023-03-04T06:17:19.594Z,21.5
2023-03-04T06:18:22.084Z,21.6
2023-03-04T06:19:24.753Z,21.6
2023-03-04T06:20:27.021Z,21.6
2023-03-04T06:21:29.264Z,21.6
2023-03-04T06:22:31.809Z,21.5
2023-03-04T06:23:34.306Z,21.5
2023-03-04T06:24:36.570Z,21.6
2023-03-04T06:25:38.813Z,21.5
2023-03-04T06:26:41.058Z,21.4
2023-03-04T06:27:43.017Z,21.7
2023-03-04T06:28:45.312Z,21.6
2023-03-04T06:29:47.809Z,21.6
2023-03-04T06:30:49.840Z,21.6
2023-03-04T06:31:52.371Z,21.5
2023-03-04T06:32:55.266Z,21.8
2023-03-04T06:33:57.498Z,21.5
2023-03-04T06:35:00.101Z,21.7
2023-03-04T06:36:02.439Z,21.4
2023-03-04T06:37:04.956Z,21.7
2023-03-04T06:38:07.473Z,21.7
2023-03-04T06:39:09.728Z,21.6
2023-03-04T06:40:12.226Z,21.7
2023-03-04T06:41:14.455Z,21.4
2023-03-04T06:42:16.730Z,21.6
2023-03-04T06:43:18.699Z,21.7
2023-03-04T06:44:20.404Z,21.5
2023-03-04T06:45:22.913Z,21.6
2023-03-04T06:46:25.354Z,21.7
2023-03-04T06:47:31.409Z,21.7
2023-03-04T06:48:33.662Z,21.5
2023-03-04T06:49:36.175Z,21.4
2023-03-04T06:50:38.772Z,21.3
2023-03-04T06:51:41.035Z,21.7
2023-03-04T06:52:43.574Z,21.5
2023-03-04T06:53:46.132Z,21.7
2023-03-04T06:54:48.676Z,21.5
2023-03-04T06:55:51.328Z,21.7
2023-03-04T06:56:53.571Z,21.4
2023-03-04T06:57:56.117Z,21.5
2023-03-04T06:58:58.589Z,21.6
2023-03-04T07:00:01.161Z,21.8
2023-03-04T07:01:03.752Z,21.4
2023-03-04T07:02:06.587Z,21.5
2023-03-04T07:03:09.074Z,21.5
2023-03-04T07:04:11.641Z,21.5
2023-03-04T07:05:14.032Z,21.7
2023-03-04T07:06:16.624Z,21.5
2023-03-04T07:07:18.612Z,21.7
2023-03-04T07:08:22.071Z,21.6
2023-03-04T07:09:24.356Z,21.7
2023-03-04T07:10:26.599Z,21.5
2023-03-04T07:11:29.104Z,21.5
2023-03-04T07:12:31.090Z,21.6
2023-03-04T07:13:33.315Z,21.5
2023-03-04T07:14:35.831Z,21.7
2023-03-04T07:15:38.433Z,21.6
2023-03-04T07:16:40.669Z,21.4
2023-03-04T07:17:43.239Z,21.5
2023-03-04T07:18:45.204Z,21.6
2023-03-04T07:19:47.171Z,21.6
2023-03-04T07:20:49.669Z,21.5
2023-03-04T07:21:51.986Z,21.6
2023-03-04T07:22:54.582Z,21.5
2023-03-04T07:23:57.083Z,21.5
2023-03-04T07:24:59.584Z,21.5
2023-03-04T07:26:01.939Z,21.7
2023-03-04T07:27:04.181Z,21.4
2023-03-04T07:28:06.131Z,21.4
2023-03-04T07:29:08.357Z,21.4
2023-03-04T07:30:10.903Z,21.4
2023-03-04T07:31:13.414Z,21.8
2023-03-04T07:32:16.664Z,21.5
2023-03-04T07:33:19.972Z,21.4
2023-03-04T07:34:22.221Z,21.6
2023-03-04T07:35:24.227Z,21.4
2023-03-04T07:36:26.644Z,21.4
2023-03-04T07:37:29.317Z,21.7
2023-03-04T07:38:31.861Z,21.4
2023-03-04T07:39:34.116Z,21.5
2023-03-04T07:40:36.337Z,21.6
2023-03-04T07:41:38.329Z,21.5
2023-03-04T07:42:40.580Z,21.5
2023-03-04T07:43:43.102Z,21.5
2023-03-04T07:44:45.335Z,21.5
2023-03-04T07:45:47.611Z,21.7
2023-03-04T07:46:49.842Z,21.7
2023-03-04T07:47:52.115Z,21.7
2023-03-04T07:48:54.712Z,21.6
2023-03-04T07:49:56.973Z,21.6
2023-03-04T07:50:59.480Z,21.5
2023-03-04T07:52:01.714Z,21.5
2023-03-04T07:53:04.286Z,21.4
2023-03-04T07:54:06.876Z,21.5
2023-03-04T07:55:09.118Z,21.6
2023-03-04T07:56:11.694Z,21.5
2023-03-04T07:57:13.936Z,21.5
2023-03-04T07:58:16.437Z,21.4
2023-03-04T07:59:18.990Z,21.5
2023-03-04T08:00:21.539Z,21.4
2023-03-04T08:01:23.793Z,21.6
2023-03-04T08:02:25.812Z,21.3
2023-03-04T08:03:28.281Z,21.4
2023-03-04T08:04:30.894Z,21.4
2023-03-04T08:05:33.792Z,21.5
2023-03-04T08:06:36.022Z,21.4
2023-03-04T08:07:38.515Z,21.6
2023-03-04T08:08:40.824Z,21.5
2023-03-04T08:09:43.344Z,21.4
2023-03-04T08:10:45.651Z,21.5
2023-03-04T08:11:47.850Z,21.7
2023-03-04T08:12:50.368Z,21.7
2023-03-04T08:13:52.602Z,21.3
2023-03-04T08:14:55.248Z,21.5
2023-03-04T08:15:57.842Z,21.6
2023-03-04T08:17:00.147Z,21.5
2023-03-04T08:18:02.662Z,21.3
2023-03-04T08:19:05.208Z,21.4
2023-03-04T08:20:07.791Z,21.3
2023-03-04T08:21:10.348Z,21.4
2023-03-04T08:22:12.650Z,21.5
2023-03-04T08:23:15.155Z,21.4
2023-03-04T08:24:17.449Z,21.4
2023-03-04T08:25:19.974Z,21.5
2023-03-04T08:26:22.178Z,21.5
2023-03-04T08:27:24.709Z,21.5
2023-03-04T08:28:26.913Z,21.4
2023-03-04T08:29:29.185Z,21.3
2023-03-04T08:30:31.706Z,21.5
2023-03-04T08:31:34.322Z,21.5
2023-03-04T08:32:37.239Z,21.4
2023-03-04T08:33:40.470Z,21.5
2023-03-04T08:34:42.991Z,21.4
2023-03-04T08:35:45.558Z,21.5
2023-03-04T08:36:47.824Z,21.6
2023-03-04T08:37:50.089Z,21.5
2023-03-04T08:38:51.781Z,21.6
2023-03-04T08:39:54.353Z,21.5
2023-03-04T08:40:56.676Z,21.6
2023-03-04T08:41:59.190Z,21.4
2023-03-04T08:43:01.467Z,21.5
2023-03-04T08:44:03.709Z,21.7
2023-03-04T08:45:05.973Z,21.7
2023-03-04T08:46:08.534Z,21.7
2023-03-04T08:47:11.101Z,21.5
2023-03-04T08:48:13.635Z,21.6
2023-03-04T08:49:16.121Z,21.5
2023-03-04T08:50:19.373Z,21.5
2023-03-04T08:51:24.203Z,21.6
2023-03-04T08:52:26.730Z,21.4
2023-03-04T08:53:28.391Z,21.6
2023-03-04T08:54:30.946Z,21.6
2023-03-04T08:55:33.514Z,21.5
2023-03-04T08:56:35.780Z,21.6
2023-03-04T08:57:37.722Z,21.6
2023-03-04T08:58:40.227Z,21.7
2023-03-04T08:59:42.733Z,21.5
2023-03-04T09:00:45.239Z,21.6
2023-03-04T09:01:47.529Z,21.4
2023-03-04T09:02:49.938Z,21.4
2023-03-04T09:03:52.241Z,21.6
2023-03-04T09:04:55.328Z,21.7
2023-03-04T09:05:57.568Z,21.5
2023-03-04T09:06:59.589Z,21.6
2023-03-04T09:08:01.907Z,21.6
2023-03-04T09:09:04.422Z,21.5
2023-03-04T09:10:06.970Z,21.5
2023-03-04T09:11:09.628Z,21.4
2023-03-04T09:12:12.177Z,21.3
2023-03-04T09:13:14.143Z,21.2
2023-03-04T09:14:16.387Z,21.3
2023-03-04T09:15:18.937Z,21.8
2023-03-04T09:16:21.038Z,21.2
2023-03-04T09:17:23.636Z,21.7
2023-03-04T09:18:25.909Z,21.4
2023-03-04T09:19:28.284Z,21.3
2023-03-04T09:20:30.843Z,21.2
2023-03-04T09:21:33.164Z,21.5
2023-03-04T09:22:35.725Z,21.3
2023-03-04T09:23:38.045Z,21.4
2023-03-04T09:24:40.306Z,21.4
2023-03-04T09:25:42.254Z,21.2
2023-03-04T09:26:44.831Z,21.5
2023-03-04T09:27:47.434Z,21.5
2023-03-04T09:28:49.653Z,21.3
2023-03-04T09:29:52.164Z,21.4
2023-03-04T09:30:54.372Z,21.5
2023-03-04T09:31:56.896Z,21.4
2023-03-04T09:32:59.637Z,21.4
2023-03-04T09:34:02.147Z,21.5
2023-03-04T09:35:04.692Z,21.5
2023-03-04T09:36:07.012Z,21.3
2023-03-04T09:37:09.598Z,21.4
2023-03-04T09:38:12.189Z,21.5
2023-03-04T09:39:14.738Z,21.2
2023-03-04T09:40:17.267Z,21.4
2023-03-04T09:41:19.808Z,21.2
2023-03-04T09:42:22.519Z,21.5
2023-03-04T09:43:24.799Z,21.4
2023-03-04T09:44:26.745Z,21.6
2023-03-04T09:45:28.995Z,21.5
2023-03-04T09:46:31.528Z,21.3
2023-03-04T09:47:34.407Z,21.2
2023-03-04T09:48:36.665Z,21.5
2023-03-04T09:49:39.160Z,21.3
2023-03-04T09:50:41.394Z,21.3
2023-03-04T09:51:43.930Z,21.5
2023-03-04T09:52:46.453Z,21.4
2023-03-04T09:53:49.012Z,21.4
2023-03-04T09:54:51.212Z,21.4
2023-03-04T09:55:53.766Z,21.4
2023-03-04T09:56:56.274Z,21.3
2023-03-04T09:57:58.922Z,21.6
2023-03-04T09:59:01.196Z,21.3
2023-03-04T10:00:03.170Z,21.2
2023-03-04T10:01:05.770Z,21.5
2023-03-04T10:02:07.987Z,21.6
2023-03-04T10:03:10.626Z,21.5
2023-03-04T10:04:13.413Z,21.5
2023-03-04T10:05:15.626Z,21.3
2023-03-04T10:06:17.854Z,21.2
2023-03-04T10:07:20.355Z,21.5
2023-03-04T10:08:22.884Z,21.3
2023-03-04T10:09:25.411Z,21.5
2023-03-04T10:10:27.990Z,21.6
2023-03-04T10:11:30.486Z,21.4
2023-03-04T10:12:32.429Z,21.5
2023-03-04T10:13:34.716Z,21.3
2023-03-04T10:14:36.969Z,21.5
2023-03-04T10:15:38.967Z,21.6
2023-03-04T10:16:40.728Z,21.4
2023-03-04T10:17:43.155Z,21.4
2023-03-04T10:18:45.112Z,21.5
2023-03-04T10:19:47.622Z,21.6
2023-03-04T10:20:49.857Z,21.4
2023-03-04T10:21:52.084Z,21.6
2023-03-04T10:22:54.044Z,21.6
2023-03-04T10:23:58.145Z,21.6
2023-03-04T10:25:01.292Z,21.7
2023-03-04T10:26:03.845Z,21.5
2023-03-04T10:27:06.075Z,21.4
2023-03-04T10:28:08.347Z,21.6
2023-03-04T10:29:10.921Z,21.4
2023-03-04T10:30:13.201Z,21.5
2023-03-04T10:31:15.749Z,21.5
2023-03-04T10:32:18.083Z,21.4
2023-03-04T10:33:20.662Z,21.5
2023-03-04T10:34:23.199Z,21.4
2023-03-04T10:35:25.488Z,21.5
2023-03-04T10:36:28.040Z,21.6
2023-03-04T10:37:30.071Z,21.5
2023-03-04T10:38:32.588Z,21.5
2023-03-04T10:39:35.138Z,21.7
2023-03-04T10:40:37.388Z,21.7
2023-03-04T10:41:39.972Z,21.5
2023-03-04T10:42:42.730Z,21.5
2023-03-04T10:43:45.917Z,21.4
2023-03-04T10:44:48.293Z,21.5
2023-03-04T10:45:50.913Z,21.4
2023-03-04T10:46:53.800Z,21.4
2023-03-04T10:47:55.760Z,21.4
2023-03-04T10:48:58.008Z,21.5
2023-03-04T10:50:00.568Z,21.4
2023-03-04T10:51:03.195Z,21.4
2023-03-04T10:52:05.421Z,21.6
2023-03-04T10:53:07.930Z,21.5
2023-03-04T10:54:09.895Z,21.5
2023-03-04T10:55:12.407Z,21.3
2023-03-04T10:56:14.419Z,21.5
2023-03-04T10:57:16.350Z,21.5
2023-03-04T10:58:18.599Z,21.4
2023-03-04T10:59:21.132Z,21.4
2023-03-04T11:00:23.451Z,21.4
2023-03-04T11:01:26.007Z,21.5
2023-03-04T11:02:28.550Z,21.4
2023-03-04T11:03:31.144Z,21.6
2023-03-04T11:04:33.654Z,21.4
2023-03-04T11:05:35.977Z,21.4
2023-03-04T11:06:38.201Z,21.3
2023-03-04T11:07:53.833Z,21.3
2023-03-04T11:08:45.677Z,21.5
2023-03-04T11:09:48.199Z,21.5
2023-03-04T11:10:50.424Z,21.3
2023-03-04T11:11:52.962Z,21.6
2023-03-04T11:12:55.464Z,21.4
2023-03-04T11:13:57.462Z,21.6
2023-03-04T11:15:00.000Z,21.6
2023-03-04T11:16:02.614Z,21.6
2023-03-04T11:17:05.188Z,21.5
2023-03-04T11:18:07.412Z,21.6
2023-03-04T11:19:09.929Z,21.7
2023-03-04T11:20:12.205Z,21.4
2023-03-04T11:21:14.713Z,21.5
2023-03-04T11:22:16.957Z,21.6
2023-03-04T11:23:19.197Z,21.6
2023-03-04T11:24:28.582Z,21.5
2023-03-04T11:25:26.662Z,21.5
2023-03-04T11:26:28.887Z,21.6
2023-03-04T11:27:31.397Z,21.4
2023-03-04T11:28:33.913Z,21.6
2023-03-04T11:29:36.465Z,21.4
2023-03-04T11:30:38.766Z,21.5
2023-03-04T11:31:41.095Z,21.6
2023-03-04T11:32:43.918Z,21.6
2023-03-04T11:33:46.735Z,21.5
2023-03-04T11:34:49.258Z,21.5
2023-03-04T11:35:51.840Z,21.6
2023-03-04T11:36:54.782Z,21.3
2023-03-04T11:37:56.443Z,21.5
2023-03-04T11:38:58.990Z,21.5
2023-03-04T11:40:00.956Z,21.6
2023-03-04T11:41:03.474Z,21.6
2023-03-04T11:42:05.488Z,21.5
2023-03-04T11:43:07.527Z,21.5
2023-03-04T11:44:09.757Z,21.3
2023-03-04T11:45:26.325Z,21.4
2023-03-04T11:46:17.046Z,21.7
2023-03-04T11:47:19.598Z,21.5
2023-03-04T11:48:22.129Z,21.5
2023-03-04T11:49:24.104Z,21.5
2023-03-04T11:50:26.353Z,21.5
2023-03-04T11:51:28.878Z,21.6
2023-03-04T11:52:30.853Z,21.6
2023-03-04T11:53:33.676Z,21.6
2023-03-04T11:54:35.975Z,21.6
2023-03-04T11:55:37.944Z,21.5
2023-03-04T11:56:40.497Z,21.5
2023-03-04T11:57:42.739Z,21.4
2023-03-04T11:58:45.288Z,21.4
2023-03-04T11:59:47.508Z,21.4
2023-03-04T12:00:49.733Z,21.6
2023-03-04T12:01:52.233Z,21.4
2023-03-04T12:02:54.861Z,21.6
2023-03-04T12:03:57.475Z,21.5
2023-03-04T12:05:01.002Z,21.5
2023-03-04T12:06:03.785Z,21.5
2023-03-04T12:07:06.288Z,21.6
2023-03-04T12:08:08.823Z,21.5
2023-03-04T12:09:10.806Z,21.6
2023-03-04T12:10:13.324Z,21.5
2023-03-04T12:11:16.077Z,21.5
2023-03-04T12:12:21.004Z,21.5
2023-03-04T12:13:22.438Z,21.5
2023-03-04T12:14:24.743Z,21.6
2023-03-04T12:15:27.283Z,21.5
2023-03-04T12:16:30.860Z,21.4
2023-03-04T12:17:33.092Z,21.9
2023-03-04T12:18:35.671Z,21.5
2023-03-04T12:19:37.926Z,21.6
2023-03-04T12:20:40.176Z,21.5
2023-03-04T12:21:42.156Z,21.6
2023-03-04T12:22:44.423Z,21.4
2023-03-04T12:23:46.945Z,21.4
2023-03-04T12:24:49.235Z,21.7
2023-03-04T12:25:51.752Z,21.6
2023-03-04T12:26:54.399Z,21.5
2023-03-04T12:27:56.352Z,21.4
2023-03-04T12:28:58.860Z,21.5
2023-03-04T12:30:01.421Z,21.6
2023-03-04T12:31:04.076Z,21.5
2023-03-04T12:32:06.838Z,21.3
2023-03-04T12:33:09.706Z,21.5
2023-03-04T12:34:12.404Z,21.6
2023-03-04T12:35:14.376Z,21.6
2023-03-04T12:36:18.292Z,21.4
2023-03-04T12:37:21.426Z,21.5
2023-03-04T12:38:23.977Z,21.5
2023-03-04T12:39:26.494Z,21.7
2023-03-04T12:40:29.021Z,21.4
2023-03-04T12:41:31.521Z,21.5
2023-03-04T12:42:34.046Z,21.7
2023-03-04T12:43:36.312Z,21.7
2023-03-04T12:44:38.510Z,21.5
2023-03-04T12:45:41.063Z,21.5
2023-03-04T12:46:43.615Z,21.6
2023-03-04T12:47:46.212Z,21.5
2023-03-04T12:48:48.757Z,21.6
2023-03-04T12:49:51.328Z,21.5
2023-03-04T12:50:53.978Z,21.6
2023-03-04T12:51:56.179Z,21.7
2023-03-04T12:52:58.698Z,21.5
2023-03-04T12:54:01.203Z,21.4
2023-03-04T12:55:03.467Z,21.6
2023-03-04T12:56:06.933Z,21.5
2023-03-04T12:57:10.689Z,21.7
2023-03-04T12:58:12.919Z,21.5
2023-03-04T12:59:15.148Z,21.4
2023-03-04T13:00:17.692Z,21.5
2023-03-04T13:01:20.258Z,21.6
2023-03-04T13:02:22.831Z,21.4
2023-03-04T13:03:25.287Z,21.5
2023-03-04T13:04:28.667Z,21.6
2023-03-04T13:05:31.259Z,21.5
2023-03-04T13:06:33.502Z,21.6
2023-03-04T13:07:35.720Z,21.6
2023-03-04T13:08:37.669Z,21.6
2023-03-04T13:09:40.185Z,21.4
2023-03-04T13:10:42.735Z,21.7
2023-03-04T13:11:44.993Z,21.5
2023-03-04T13:12:47.491Z,21.5
2023-03-04T13:13:49.740Z,21.6
2023-03-04T13:14:52.394Z,21.6
2023-03-04T13:15:55.726Z,21.7
2023-03-04T13:16:58.958Z,21.8
2023-03-04T13:18:01.474Z,21.6
2023-03-04T13:19:03.724Z,21.6
2023-03-04T13:20:05.987Z,21.4
2023-03-04T13:21:08.571Z,21.6
2023-03-04T13:22:10.795Z,21.6
2023-03-04T13:23:13.058Z,21.4
2023-03-04T13:24:15.336Z,21.5
2023-03-04T13:25:17.822Z,21.6
2023-03-04T13:26:20.344Z,21.5
2023-03-04T13:27:22.422Z,21.6
2023-03-04T13:28:24.385Z,21.5
2023-03-04T13:29:26.705Z,21.6
2023-03-04T13:30:29.272Z,21.6
2023-03-04T13:31:31.568Z,21.4
2023-03-04T13:32:34.333Z,21.5
2023-03-04T13:33:36.849Z,21.7
2023-03-04T13:34:39.372Z,21.5
2023-03-04T13:35:41.909Z,21.5
2023-03-04T13:36:44.593Z,21.5
2023-03-04T13:37:46.856Z,21.4
2023-03-04T13:38:49.369Z,21.7
2023-03-04T13:39:51.878Z,21.5
2023-03-04T13:40:54.365Z,21.6
2023-03-04T13:41:56.873Z,21.6
2023-03-04T13:42:58.886Z,21.6
2023-03-04T13:44:01.421Z,21.4
2023-03-04T13:45:03.633Z,21.6
2023-03-04T13:46:06.168Z,21.5
2023-03-04T13:47:08.090Z,21.5
2023-03-04T13:48:10.621Z,21.6
2023-03-04T13:49:12.572Z,21.5
2023-03-04T13:50:15.058Z,21.6
2023-03-04T13:51:28.562Z,21.7
2023-03-04T13:52:22.533Z,21.6
2023-03-04T13:53:25.158Z,21.5
2023-03-04T13:54:27.410Z,21.6
2023-03-04T13:55:29.623Z,21.5